Time;durP1;ratioP1;P1;durP2;ratioP2;P2;SDS_P1;SDS_P2;PMS_P1;PMS_P2;Temp;Humidity;BMP_temperature;BMP_pressure;BME280_temperature;BME280_humidity;BME280_pressure;Samples;Min_cycle;Max_cycle;Signal;HPM_P1;HPM_P2
2022/07/11 00:02:04;;;;;;;4.65;1.70;;;16.00;99.90;;;;;;5011603;28;20038;-73
2022/07/11 00:04:30;;;;;;;8.80;2.05;;;16.00;99.90;;;;;;5008173;28;20034;-73
2022/07/11 00:06:57;;;;;;;5.88;2.03;;;16.00;99.90;;;;;;5011486;28;20176;-73
2022/07/11 00:09:22;;;;;;;6.50;2.30;;;15.90;99.90;;;;;;5010304;28;20559;-73
2022/07/11 00:11:49;;;;;;;6.47;2.28;;;15.90;99.90;;;;;;5009815;28;20038;-73
2022/07/11 00:14:15;;;;;;;5.80;2.90;;;15.90;99.90;;;;;;4990839;28;20123;-73
2022/07/11 00:16:41;;;;;;;7.30;2.72;;;15.90;99.90;;;;;;5009466;28;20042;-73
2022/07/11 00:19:07;;;;;;;5.78;2.42;;;15.90;99.90;;;;;;5009522;28;20049;-73
2022/07/11 00:21:34;;;;;;;6.60;2.67;;;15.80;99.90;;;;;;5009484;28;20455;-73
2022/07/11 00:24:00;;;;;;;5.05;2.70;;;15.90;99.90;;;;;;5041519;28;20121;-73
2022/07/11 00:26:26;;;;;;;5.85;2.78;;;15.80;99.90;;;;;;5010662;28;20132;-73
2022/07/11 00:28:52;;;;;;;6.72;3.10;;;15.80;99.90;;;;;;5007311;28;20050;-73
2022/07/11 00:31:17;;;;;;;7.40;2.67;;;15.70;99.90;;;;;;5007752;28;20060;-73
2022/07/11 00:33:43;;;;;;;5.30;2.40;;;15.70;99.90;;;;;;4993755;28;20129;-73
2022/07/11 00:36:09;;;;;;;8.48;2.35;;;15.60;99.90;;;;;;5008070;28;20151;-73
2022/07/11 00:38:35;;;;;;;4.13;2.33;;;15.60;99.90;;;;;;5008661;28;20458;-73
2022/07/11 00:41:01;;;;;;;4.95;2.55;;;15.60;99.90;;;;;;5009979;28;20056;-73
2022/07/11 00:43:31;;;;;;;5.80;2.60;;;15.60;99.90;;;;;;5006974;28;20040;-73
2022/07/11 00:45:57;;;;;;;4.50;3.10;;;15.70;99.90;;;;;;5040250;28;20065;-73
2022/07/11 00:48:23;;;;;;;4.60;2.67;;;15.60;99.90;;;;;;5009523;28;20505;-73
2022/07/11 00:50:48;;;;;;;6.32;3.40;;;15.60;99.90;;;;;;5040806;28;20045;-73
2022/07/11 00:53:14;;;;;;;6.93;3.10;;;15.60;99.90;;;;;;5007825;28;20153;-73
2022/07/11 00:55:40;;;;;;;4.65;3.40;;;15.60;99.90;;;;;;5043375;28;20041;-73
2022/07/11 00:58:07;;;;;;;6.03;2.78;;;15.50;99.90;;;;;;5008796;28;20037;-73
2022/07/11 01:00:33;;;;;;;5.38;3.22;;;15.50;99.90;;;;;;5006803;28;20029;-73
2022/07/11 01:02:58;;;;;;;8.93;3.30;;;15.50;99.90;;;;;;5010086;28;20294;-73
2022/07/11 01:05:24;;;;;;;7.18;3.47;;;15.50;99.90;;;;;;5008615;28;20041;-73
2022/07/11 01:07:50;;;;;;;5.72;3.13;;;15.50;99.90;;;;;;5007671;28;20473;-73
2022/07/11 01:10:16;;;;;;;7.32;3.38;;;15.50;99.90;;;;;;5008956;28;20045;-73
2022/07/11 01:12:41;;;;;;;7.93;3.58;;;15.50;99.90;;;;;;5007300;28;20045;-73
2022/07/11 01:15:07;;;;;;;8.63;3.53;;;15.40;99.90;;;;;;4990542;28;20105;-73
2022/07/11 01:17:33;;;;;;;5.70;3.38;;;15.40;99.90;;;;;;5008723;28;20375;-73
2022/07/11 01:20:00;;;;;;;7.30;3.35;;;15.40;99.90;;;;;;5007463;28;20041;-73
2022/07/11 01:22:28;;;;;;;5.70;3.47;;;15.40;99.90;;;;;;4992614;28;20133;-73
2022/07/11 01:24:55;;;;;;;11.13;3.45;;;15.40;99.90;;;;;;5009672;28;20107;-73
2022/07/11 01:27:22;;;;;;;10.73;3.15;;;15.40;99.90;;;;;;4988951;28;20046;-73
2022/07/11 01:29:48;;;;;;;11.00;3.80;;;15.40;99.90;;;;;;5008451;28;20092;-73
2022/07/11 01:32:16;;;;;;;11.02;3.50;;;15.40;99.90;;;;;;5009222;28;20045;-73
2022/07/11 01:34:42;;;;;;;9.68;3.30;;;15.30;99.90;;;;;;5023506;28;20042;-72
2022/07/11 01:37:08;;;;;;;7.85;3.72;;;15.30;99.90;;;;;;4991477;28;20093;-72
2022/07/11 01:39:33;;;;;;;6.65;3.47;;;15.30;99.90;;;;;;5026061;28;20034;-73
2022/07/11 01:41:59;;;;;;;8.30;3.75;;;15.30;99.90;;;;;;5008121;28;20499;-73
2022/07/11 01:44:25;;;;;;;6.13;3.08;;;15.30;99.90;;;;;;5008182;28;20050;-71
2022/07/11 01:46:51;;;;;;;6.72;3.33;;;15.30;99.90;;;;;;5007154;28;20073;-72
2022/07/11 01:49:17;;;;;;;8.60;3.85;;;15.30;99.90;;;;;;5008968;28;20046;-72
2022/07/11 01:51:43;;;;;;;10.07;3.47;;;15.30;99.90;;;;;;5008857;28;20103;-72
2022/07/11 01:54:08;;;;;;;9.90;4.38;;;15.30;99.90;;;;;;5009463;28;20445;-72
2022/07/11 01:56:34;;;;;;;7.65;3.47;;;15.30;99.90;;;;;;4991339;28;20461;-71
2022/07/11 01:59:01;;;;;;;8.88;3.42;;;15.30;99.90;;;;;;5022569;28;20397;-71
2022/07/11 02:01:26;;;;;;;7.95;4.00;;;15.20;99.90;;;;;;5006092;28;20580;-72
2022/07/11 02:03:53;;;;;;;8.90;3.92;;;15.20;99.90;;;;;;5041196;28;20030;-72
2022/07/11 02:06:19;;;;;;;7.22;3.55;;;15.20;99.90;;;;;;5025617;28;20648;-72
2022/07/11 02:08:45;;;;;;;8.60;4.03;;;15.20;99.90;;;;;;5008598;28;20121;-72
2022/07/11 02:11:10;;;;;;;7.78;3.40;;;15.30;99.90;;;;;;5006211;28;20057;-72
2022/07/11 02:13:36;;;;;;;6.03;3.60;;;15.20;99.90;;;;;;5005441;28;20045;-72
2022/07/11 02:16:02;;;;;;;8.00;3.55;;;15.20;99.90;;;;;;5025237;28;20061;-72
2022/07/11 02:18:28;;;;;;;7.53;4.35;;;15.20;99.90;;;;;;5009019;28;20184;-72
2022/07/11 02:20:54;;;;;;;7.28;3.95;;;15.20;99.90;;;;;;5040131;28;20073;-72
2022/07/11 02:23:20;;;;;;;5.07;3.83;;;15.20;99.90;;;;;;4992982;28;20077;-72
2022/07/11 02:25:47;;;;;;;7.63;3.40;;;15.20;99.90;;;;;;5008187;28;21043;-72
2022/07/11 02:28:13;;;;;;;5.57;3.47;;;15.20;99.90;;;;;;5020644;28;20506;-72
2022/07/11 02:30:41;;;;;;;8.25;3.47;;;15.20;99.90;;;;;;5005323;28;20188;-72
2022/07/11 02:33:07;;;;;;;6.95;4.15;;;15.20;99.90;;;;;;5007588;28;20041;-71
2022/07/11 02:35:35;;;;;;;7.55;3.90;;;15.20;99.90;;;;;;5006756;28;20042;-71
2022/07/11 02:38:01;;;;;;;7.93;5.03;;;15.30;99.90;;;;;;5024548;28;20077;-71
2022/07/11 02:40:27;;;;;;;6.90;3.63;;;15.20;99.90;;;;;;5008476;28;20122;-72
2022/07/11 02:42:53;;;;;;;6.90;3.60;;;15.30;99.90;;;;;;5007331;28;20042;-72
2022/07/11 02:45:19;;;;;;;5.80;3.78;;;15.30;99.90;;;;;;5041291;28;20049;-72
2022/07/11 02:47:45;;;;;;;7.72;3.85;;;15.30;99.90;;;;;;5010990;28;20049;-72
2022/07/11 02:50:12;;;;;;;8.85;3.92;;;15.30;99.90;;;;;;5013421;28;20044;-72
2022/07/11 02:52:39;;;;;;;7.85;3.67;;;15.30;99.90;;;;;;5008942;28;20052;-72
2022/07/11 02:55:07;;;;;;;11.23;4.53;;;15.30;99.90;;;;;;5020510;28;20045;-72
2022/07/11 02:57:33;;;;;;;12.38;3.85;;;15.30;99.90;;;;;;5022982;28;20049;-72
2022/07/11 02:59:59;;;;;;;9.38;4.05;;;15.30;99.90;;;;;;5010477;28;20041;-72
2022/07/11 03:02:24;;;;;;;10.95;3.97;;;15.30;99.90;;;;;;5010146;28;20388;-72
2022/07/11 03:04:50;;;;;;;7.25;4.10;;;15.30;99.90;;;;;;5012607;28;20132;-72
2022/07/11 03:07:16;;;;;;;12.93;4.28;;;15.30;99.90;;;;;;5011771;28;20492;-72
2022/07/11 03:09:43;;;;;;;8.15;3.80;;;15.30;99.90;;;;;;5011207;28;20128;-72
2022/07/11 03:12:08;;;;;;;7.53;3.95;;;15.30;99.90;;;;;;5010667;28;20092;-72
2022/07/11 03:14:34;;;;;;;12.35;4.38;;;15.20;99.90;;;;;;5026692;28;20038;-72
2022/07/11 03:17:00;;;;;;;7.55;4.28;;;15.30;99.90;;;;;;5010901;28;20065;-72
2022/07/11 03:19:26;;;;;;;7.80;4.22;;;15.20;99.90;;;;;;5011101;28;20049;-72
2022/07/11 03:21:52;;;;;;;10.55;4.40;;;15.20;99.90;;;;;;5041921;28;20050;-72
2022/07/11 03:24:17;;;;;;;9.07;4.47;;;15.20;99.90;;;;;;5011651;28;20045;-72
2022/07/11 03:26:43;;;;;;;10.55;4.68;;;15.20;99.90;;;;;;5009721;28;20088;-72
2022/07/11 03:29:09;;;;;;;11.07;4.80;;;15.20;99.90;;;;;;5010073;28;20051;-72
2022/07/11 03:31:35;;;;;;;9.32;4.57;;;15.30;99.90;;;;;;5009497;28;20117;-72
2022/07/11 03:34:00;;;;;;;10.52;5.00;;;15.30;99.90;;;;;;5003300;28;20077;-72
2022/07/11 03:36:26;;;;;;;9.48;4.60;;;15.30;99.90;;;;;;5009134;28;20450;-72
2022/07/11 03:38:52;;;;;;;10.98;5.15;;;15.30;99.90;;;;;;5011116;28;20042;-72
2022/07/11 03:41:18;;;;;;;8.52;4.15;;;15.30;99.90;;;;;;5027119;28;20050;-72
2022/07/11 03:43:43;;;;;;;11.50;4.82;;;15.30;99.90;;;;;;4989443;28;20517;-72
2022/07/11 03:46:09;;;;;;;11.48;4.95;;;15.20;99.90;;;;;;5010415;28;20172;-72
2022/07/11 03:48:35;;;;;;;7.18;4.78;;;15.30;99.90;;;;;;5011439;28;20120;-72
2022/07/11 03:51:01;;;;;;;7.82;4.43;;;15.30;99.90;;;;;;5028192;28;20037;-72
2022/07/11 03:53:27;;;;;;;8.55;4.50;;;15.30;99.90;;;;;;5009481;28;20054;-72
2022/07/11 03:55:53;;;;;;;9.52;4.40;;;15.30;99.90;;;;;;5011683;28;20081;-72
2022/07/11 03:58:18;;;;;;;8.30;4.35;;;15.30;99.90;;;;;;5007676;28;20589;-72
2022/07/11 04:00:44;;;;;;;7.45;3.67;;;15.30;99.90;;;;;;5009363;28;20041;-72
2022/07/11 04:03:10;;;;;;;5.78;3.90;;;15.30;99.90;;;;;;5041707;28;20069;-72
2022/07/11 04:05:36;;;;;;;8.40;4.20;;;15.30;99.90;;;;;;5011581;28;20072;-72
2022/07/11 04:08:02;;;;;;;6.60;4.30;;;15.30;99.90;;;;;;5010336;28;20124;-72
2022/07/11 04:10:27;;;;;;;6.55;3.70;;;15.30;99.90;;;;;;5011436;28;20037;-72
2022/07/11 04:12:53;;;;;;;8.07;4.35;;;15.30;99.90;;;;;;5008545;28;20038;-74
2022/07/11 04:15:19;;;;;;;6.03;3.25;;;15.30;99.90;;;;;;5009700;28;20544;-73
2022/07/11 04:17:45;;;;;;;5.65;3.38;;;15.40;99.90;;;;;;4993276;28;20046;-73
2022/07/11 04:20:11;;;;;;;7.07;3.08;;;15.40;99.90;;;;;;5010053;28;20076;-73
2022/07/11 04:22:36;;;;;;;6.15;3.22;;;15.40;99.90;;;;;;5010000;28;20513;-73
2022/07/11 04:25:02;;;;;;;5.63;3.15;;;15.40;99.90;;;;;;5025426;28;20537;-73
2022/07/11 04:27:29;;;;;;;6.85;2.90;;;15.40;99.90;;;;;;5041846;28;20492;-73
2022/07/11 04:29:54;;;;;;;5.13;2.45;;;15.40;99.90;;;;;;5009586;28;20131;-73
2022/07/11 04:32:20;;;;;;;13.90;12.13;;;15.50;99.90;;;;;;5009403;28;20073;-73
2022/07/11 04:34:47;;;;;;;25.92;23.02;;;15.40;99.90;;;;;;5010357;28;20044;-72
2022/07/11 04:37:12;;;;;;;5.90;2.42;;;15.40;99.90;;;;;;5009790;28;20050;-72
2022/07/11 04:39:38;;;;;;;4.57;2.60;;;15.40;99.90;;;;;;5010992;28;20545;-72
2022/07/11 04:42:06;;;;;;;3.40;1.90;;;15.40;99.90;;;;;;5009500;28;20038;-71
2022/07/11 04:44:32;;;;;;;4.60;2.35;;;15.40;99.90;;;;;;5009608;28;20088;-71
2022/07/11 04:46:58;;;;;;;6.00;2.20;;;15.40;99.90;;;;;;5010742;28;20057;-71
2022/07/11 04:49:24;;;;;;;3.45;2.00;;;15.50;99.90;;;;;;5006151;28;20042;-71
2022/07/11 04:51:50;;;;;;;4.07;1.90;;;15.50;99.90;;;;;;5011518;28;20030;-71
2022/07/11 04:54:16;;;;;;;5.32;2.45;;;15.50;99.90;;;;;;5009129;28;20101;-70
2022/07/11 04:56:42;;;;;;;4.82;2.08;;;15.50;99.90;;;;;;5003745;28;20046;-70
2022/07/11 04:59:08;;;;;;;4.55;1.83;;;15.60;99.90;;;;;;5011897;28;20037;-70
2022/07/11 05:01:34;;;;;;;4.13;2.28;;;15.60;99.90;;;;;;5012034;28;20343;-70
2022/07/11 05:04:00;;;;;;;2.58;1.80;;;15.60;99.90;;;;;;5008535;28;20498;-70
2022/07/11 05:06:26;;;;;;;4.25;1.70;;;15.70;99.90;;;;;;5009749;28;20125;-70
2022/07/11 05:08:54;;;;;;;3.08;2.03;;;15.70;99.90;;;;;;5009463;28;20394;-70
2022/07/11 05:11:20;;;;;;;5.75;1.70;;;15.60;99.90;;;;;;5041312;28;20037;-70
2022/07/11 05:13:46;;;;;;;3.72;1.98;;;15.70;99.90;;;;;;5037706;28;20129;-70
2022/07/11 05:16:12;;;;;;;5.40;2.40;;;15.70;99.90;;;;;;5010110;28;20780;-70
2022/07/11 05:18:38;;;;;;;4.57;1.63;;;15.80;99.90;;;;;;5008975;28;20124;-70
2022/07/11 05:21:04;;;;;;;2.40;1.77;;;15.80;99.90;;;;;;5011325;28;20147;-70
2022/07/11 05:23:30;;;;;;;3.22;1.63;;;15.90;99.90;;;;;;5009690;28;20066;-70
2022/07/11 05:25:56;;;;;;;3.50;1.40;;;16.00;99.90;;;;;;5041232;28;20404;-70
2022/07/11 05:28:21;;;;;;;2.90;1.30;;;16.00;99.90;;;;;;5009173;28;20053;-70
2022/07/11 05:30:47;;;;;;;3.17;1.55;;;16.00;99.90;;;;;;5026355;28;20065;-70
2022/07/11 05:33:13;;;;;;;3.20;1.75;;;16.10;99.90;;;;;;5008651;28;20038;-70
2022/07/11 05:35:38;;;;;;;3.03;1.45;;;16.00;99.90;;;;;;5008682;28;20054;-70
2022/07/11 05:38:04;;;;;;;3.65;1.20;;;16.10;99.90;;;;;;5002712;28;20145;-70
2022/07/11 05:40:30;;;;;;;1.30;1.00;;;16.00;99.90;;;;;;5010031;28;20041;-70
2022/07/11 05:42:55;;;;;;;3.35;1.27;;;16.00;99.90;;;;;;5008601;28;20046;-70
2022/07/11 05:45:21;;;;;;;3.10;1.35;;;16.00;99.90;;;;;;5007854;28;20050;-70
2022/07/11 05:47:47;;;;;;;1.25;0.95;;;16.00;99.90;;;;;;5007244;28;20058;-70
2022/07/11 05:50:12;;;;;;;2.63;0.90;;;16.00;99.90;;;;;;5008742;28;20458;-70
2022/07/11 05:52:38;;;;;;;1.30;0.70;;;16.00;99.90;;;;;;5007180;28;20042;-70
2022/07/11 05:55:04;;;;;;;2.40;1.17;;;16.00;99.90;;;;;;5008256;28;20127;-70
2022/07/11 05:57:30;;;;;;;4.28;1.08;;;16.00;99.90;;;;;;5005074;28;20549;-71
2022/07/11 05:59:56;;;;;;;3.75;0.90;;;16.10;99.90;;;;;;5009405;28;20058;-70
2022/07/11 06:02:21;;;;;;;2.88;0.80;;;16.20;99.90;;;;;;5007827;28;20157;-70
2022/07/11 06:04:47;;;;;;;1.88;0.90;;;16.30;99.90;;;;;;4991908;28;20128;-70
2022/07/11 06:08:40;;;;;;;1.85;0.70;;;16.40;99.90;;;;;;5005097;28;20452;-70
2022/07/11 06:09:58;;;;;;;2.97;0.95;;;16.50;99.90;;;;;;5008424;28;20050;-70
2022/07/11 06:12:24;;;;;;;1.65;0.77;;;16.50;99.90;;;;;;5005565;28;20053;-69
2022/07/11 06:14:49;;;;;;;4.10;0.90;;;16.60;99.90;;;;;;5005839;28;20048;-70
2022/07/11 06:17:15;;;;;;;4.25;1.27;;;16.70;99.90;;;;;;5007594;28;20410;-70
2022/07/11 06:19:41;;;;;;;1.63;0.82;;;16.70;99.90;;;;;;5008101;28;20589;-70
2022/07/11 06:22:06;;;;;;;1.58;0.80;;;16.80;99.90;;;;;;5008408;28;20041;-70
2022/07/11 06:24:32;;;;;;;1.77;0.73;;;16.80;99.90;;;;;;5007071;28;20062;-70
2022/07/11 06:27:00;;;;;;;2.53;0.93;;;16.80;99.90;;;;;;5006758;28;20061;-70
2022/07/11 06:29:26;;;;;;;2.28;0.90;;;16.90;99.90;;;;;;5009109;28;20049;-70
2022/07/11 06:31:52;;;;;;;2.95;0.90;;;16.80;99.90;;;;;;5004571;28;20129;-70
2022/07/11 06:34:18;;;;;;;1.02;0.50;;;16.80;99.90;;;;;;5010826;28;20545;-70
2022/07/11 06:36:44;;;;;;;0.90;0.50;;;16.80;99.90;;;;;;5008910;28;20046;-70
2022/07/11 06:39:10;;;;;;;2.53;0.70;;;16.90;99.90;;;;;;5008537;28;20038;-70
2022/07/11 06:41:35;;;;;;;1.75;0.60;;;16.90;99.90;;;;;;5009273;28;20046;-70
2022/07/11 06:44:01;;;;;;;1.98;0.50;;;16.90;99.90;;;;;;5008370;28;20041;-71
2022/07/11 06:46:27;;;;;;;2.35;0.55;;;16.90;99.90;;;;;;5014809;28;20088;-71
2022/07/11 06:48:53;;;;;;;1.73;0.50;;;16.90;99.90;;;;;;5008066;28;20042;-70
2022/07/11 06:51:19;;;;;;;1.58;0.60;;;16.90;99.90;;;;;;4992901;28;20049;-71
2022/07/11 06:53:44;;;;;;;3.47;0.60;;;16.90;99.90;;;;;;5008602;28;20482;-71
2022/07/11 06:56:10;;;;;;;2.28;0.57;;;17.00;99.90;;;;;;5006798;28;20514;-71
2022/07/11 06:58:36;;;;;;;0.93;0.50;;;17.00;99.90;;;;;;5005934;28;20430;-71
2022/07/11 07:01:04;;;;;;;2.05;0.47;;;17.10;99.90;;;;;;5040511;28;20046;-71
2022/07/11 07:03:32;;;;;;;2.92;0.40;;;17.20;99.90;;;;;;5004861;28;20060;-70
2022/07/11 07:05:58;;;;;;;1.02;0.50;;;17.20;99.90;;;;;;5006445;28;20034;-67
2022/07/11 07:08:25;;;;;;;0.73;0.40;;;17.20;99.90;;;;;;5039155;28;20045;-66
2022/07/11 07:10:52;;;;;;;1.73;0.40;;;17.40;99.90;;;;;;5005544;28;20405;-65
2022/07/11 07:13:20;;;;;;;1.83;0.50;;;17.40;99.90;;;;;;5006518;28;20663;-65
2022/07/11 07:15:46;;;;;;;1.20;0.35;;;17.50;99.90;;;;;;5007774;28;20084;-65
2022/07/11 07:18:12;;;;;;;1.58;0.43;;;17.50;99.90;;;;;;5008218;28;20564;-66
2022/07/11 07:20:38;;;;;;;1.30;0.38;;;17.50;99.90;;;;;;5007320;28;20116;-67
2022/07/11 07:23:04;;;;;;;4.18;0.77;;;17.50;99.90;;;;;;5008072;28;20109;-66
2022/07/11 07:25:29;;;;;;;1.50;0.32;;;17.50;99.90;;;;;;5008649;28;20624;-71
2022/07/11 07:27:55;;;;;;;1.90;0.32;;;17.50;99.90;;;;;;5005395;28;20049;-71
2022/07/11 07:30:21;;;;;;;1.85;0.43;;;17.50;99.90;;;;;;5040673;28;20118;-71
2022/07/11 07:32:46;;;;;;;1.27;0.40;;;17.60;99.90;;;;;;5009210;28;20129;-71
2022/07/11 07:35:12;;;;;;;1.80;0.43;;;17.50;99.90;;;;;;4996045;28;20064;-70
2022/07/11 07:37:38;;;;;;;2.15;0.50;;;17.50;99.90;;;;;;5013626;28;20049;-70
2022/07/11 07:40:04;;;;;;;1.92;0.40;;;17.60;99.90;;;;;;5009701;28;20037;-70
2022/07/11 07:42:31;;;;;;;1.38;0.40;;;17.60;99.90;;;;;;5010990;28;20112;-70
2022/07/11 07:44:56;;;;;;;1.55;0.30;;;17.60;99.90;;;;;;5043996;28;20109;-70
2022/07/11 07:47:22;;;;;;;1.45;0.30;;;17.60;99.90;;;;;;5007964;28;20103;-70
2022/07/11 07:49:48;;;;;;;1.08;0.30;;;17.70;99.90;;;;;;4995563;28;20482;-70
2022/07/11 07:52:14;;;;;;;1.08;0.22;;;17.70;99.90;;;;;;4995140;28;20053;-70
2022/07/11 07:54:40;;;;;;;1.67;0.32;;;17.70;99.90;;;;;;5011913;28;20057;-70
2022/07/11 07:57:06;;;;;;;1.63;0.30;;;17.80;99.90;;;;;;5042587;28;20042;-70
2022/07/11 07:59:32;;;;;;;1.08;0.20;;;18.00;99.90;;;;;;5013749;28;20038;-70
2022/07/11 08:01:57;;;;;;;1.38;0.32;;;18.20;99.90;;;;;;5011162;28;20370;-70
2022/07/11 08:04:23;;;;;;;1.25;0.30;;;18.30;99.90;;;;;;5012123;28;20069;-70
2022/07/11 08:06:49;;;;;;;1.42;0.20;;;18.30;99.90;;;;;;5010307;28;20045;-70
2022/07/11 08:09:15;;;;;;;1.33;0.20;;;18.20;99.90;;;;;;5027340;28;20054;-70
2022/07/11 08:11:40;;;;;;;0.80;0.20;;;18.30;99.90;;;;;;5012976;28;20042;-70
2022/07/11 08:14:07;;;;;;;1.65;0.30;;;18.30;99.90;;;;;;5010729;28;20038;-70
2022/07/11 08:16:34;;;;;;;0.88;0.28;;;18.40;99.90;;;;;;5010221;28;20385;-70
2022/07/11 08:19:03;;;;;;;1.50;0.30;;;18.40;99.90;;;;;;5009824;28;20053;-70
2022/07/11 08:21:29;;;;;;;0.70;0.30;;;18.30;99.90;;;;;;5011148;28;20046;-70
2022/07/11 08:23:56;;;;;;;1.85;0.30;;;18.10;99.90;;;;;;5010830;28;20088;-70
2022/07/11 08:26:22;;;;;;;0.25;0.10;;;18.10;99.90;;;;;;5010131;28;20049;-70
2022/07/11 08:28:48;;;;;;;0.45;0.22;;;18.10;99.90;;;;;;5010059;28;20034;-70
2022/07/11 08:31:13;;;;;;;0.55;0.10;;;18.20;99.90;;;;;;5009252;28;20054;-70
2022/07/11 08:33:39;;;;;;;3.03;0.17;;;18.30;99.90;;;;;;5010187;28;20072;-70
2022/07/11 08:36:06;;;;;;;0.10;0.00;;;18.40;99.90;;;;;;5007661;28;20161;-69
2022/07/11 08:38:32;;;;;;;0.28;0.10;;;18.60;99.90;;;;;;5042438;28;20459;-69
2022/07/11 08:40:57;;;;;;;1.73;0.10;;;19.40;99.90;;;;;;5006760;28;20040;-70
2022/07/11 08:43:30;;;;;;;0.80;0.10;;;19.70;99.90;;;;;;5008266;28;20716;-71
2022/07/11 08:45:56;;;;;;;0.32;0.08;;;19.90;99.90;;;;;;5007674;28;20516;-71
2022/07/11 08:48:23;;;;;;;0.25;0.10;;;19.90;99.90;;;;;;5005499;28;20045;-70
2022/07/11 08:50:50;;;;;;;0.43;0.20;;;19.70;99.90;;;;;;5010762;28;20042;-70
2022/07/11 08:53:16;;;;;;;0.22;0.10;;;19.90;99.90;;;;;;5041319;28;20564;-70
2022/07/11 08:55:42;;;;;;;0.50;0.20;;;20.30;99.90;;;;;;5041893;28;20046;-70
2022/07/11 08:58:09;;;;;;;0.98;0.10;;;20.70;99.90;;;;;;5008624;28;20074;-71
2022/07/11 09:00:36;;;;;;;0.10;0.00;;;21.10;99.90;;;;;;5041737;28;20087;-71
2022/07/11 09:03:03;;;;;;;0.20;0.10;;;21.60;99.90;;;;;;5010365;28;20104;-71
2022/07/11 09:05:30;;;;;;;3.38;0.20;;;21.80;99.90;;;;;;5007519;28;20050;-72
2022/07/11 09:07:56;;;;;;;0.55;0.13;;;22.00;99.90;;;;;;5008309;28;20042;-71
2022/07/11 09:10:22;;;;;;;0.70;0.20;;;21.60;99.90;;;;;;5009622;28;20054;-71
2022/07/11 09:13:10;;;;;;;0.30;0.10;;;21.20;99.90;;;;;;5009960;28;20466;-70
2022/07/11 09:15:41;;;;;;;0.40;0.10;;;20.70;99.90;;;;;;5007506;28;20042;-70
2022/07/11 09:18:25;;;;;;;0.13;0.00;;;20.30;99.90;;;;;;5043043;28;20073;-70
2022/07/11 09:26:46;;;;;;;0.95;0.10;;;19.70;99.90;;;;;;5009702;28;20046;-71
2022/07/11 09:29:14;;;;;;;0.85;0.20;;;19.50;99.90;;;;;;5006145;28;20046;-73
2022/07/11 09:31:42;;;;;;;0.40;0.10;;;19.40;99.90;;;;;;5008141;28;20053;-72
2022/07/11 09:34:15;;;;;;;0.52;0.05;;;19.40;99.90;;;;;;5008754;28;20409;-73
2022/07/11 09:36:47;;;;;;;0.80;0.10;;;19.40;99.90;;;;;;4993373;28;20076;-72
2022/07/11 09:39:15;;;;;;;0.70;0.10;;;19.80;99.90;;;;;;5009250;28;20398;-73
2022/07/11 09:41:41;;;;;;;0.30;0.10;;;20.10;99.90;;;;;;5008685;28;20064;-73
2022/07/11 09:44:15;;;;;;;0.30;0.05;;;20.30;99.90;;;;;;5003045;28;20061;-73
2022/07/11 09:46:42;;;;;;;0.50;0.10;;;20.40;99.90;;;;;;5007929;28;20054;-73
2022/07/11 09:49:08;;;;;;;0.20;0.10;;;20.40;99.90;;;;;;5009174;28;20048;-73
2022/07/11 09:51:36;;;;;;;0.10;0.10;;;20.20;99.90;;;;;;5008383;28;20541;-73
2022/07/11 09:54:04;;;;;;;0.05;0.00;;;20.10;99.90;;;;;;4994425;28;20125;-70
2022/07/11 09:56:42;;;;;;;0.10;0.10;;;19.90;99.90;;;;;;5025165;28;20088;-73
2022/07/11 09:59:10;;;;;;;0.70;0.32;;;19.80;99.90;;;;;;4989082;28;20045;-73
2022/07/11 10:01:38;;;;;;;0.38;0.10;;;19.70;99.90;;;;;;5010200;28;20037;-74
2022/07/11 10:04:08;;;;;;;0.80;0.10;;;19.70;99.90;;;;;;5027401;28;20045;-74
2022/07/11 10:06:36;;;;;;;0.77;0.10;;;19.80;99.90;;;;;;5011566;28;20058;-74
2022/07/11 10:09:04;;;;;;;0.45;0.03;;;19.80;99.90;;;;;;5003818;28;20042;-74
2022/07/11 10:11:31;;;;;;;0.47;0.10;;;19.90;99.90;;;;;;5008407;28;20072;-74
2022/07/11 10:13:59;;;;;;;0.55;0.10;;;20.10;99.90;;;;;;5008585;28;20050;-72
2022/07/11 10:16:38;;;;;;;0.20;0.10;;;20.30;99.90;;;;;;5026518;28;20049;-72
2022/07/11 10:19:26;;;;;;;0.08;0.00;;;20.50;99.90;;;;;;5039465;28;20056;-73
2022/07/11 10:22:22;;;;;;;1.10;0.10;;;20.50;99.90;;;;;;5038817;28;20111;-73
2022/07/11 10:25:17;;;;;;;1.30;0.10;;;20.40;99.90;;;;;;5035705;28;20049;-72
2022/07/11 10:27:49;;;;;;;0.30;0.10;;;20.20;99.90;;;;;;5029090;28;20615;-72
2022/07/11 10:30:49;;;;;;;0.52;0.10;;;20.00;99.90;;;;;;5026418;28;20501;-72
2022/07/11 10:33:16;;;;;;;0.10;0.10;;;19.80;99.90;;;;;;5026055;28;20061;-72
2022/07/11 10:35:44;;;;;;;1.65;0.10;;;19.60;99.90;;;;;;5040433;28;20042;-72
2022/07/11 10:38:10;;;;;;;0.60;0.20;;;19.70;99.90;;;;;;5005228;28;20046;-72
2022/07/11 10:40:50;;;;;;;1.00;0.10;;;19.70;99.90;;;;;;5008246;28;20057;-72
2022/07/11 10:43:39;;;;;;;0.68;0.10;;;19.70;99.90;;;;;;5005033;28;20049;-72
2022/07/11 10:46:11;;;;;;;0.47;0.10;;;19.90;99.90;;;;;;5008680;28;20046;-72
2022/07/11 10:49:12;;;;;;;0.20;0.00;;;19.90;99.90;;;;;;5008713;28;20053;-72
2022/07/11 10:51:52;;;;;;;0.43;0.00;;;20.00;99.90;;;;;;4987040;28;20060;-72
2022/07/11 10:54:42;;;;;;;0.10;0.03;;;20.00;99.90;;;;;;5007335;28;20442;-72
2022/07/11 10:57:13;;;;;;;0.57;0.00;;;20.10;99.90;;;;;;5009755;28;20060;-73
2022/07/11 10:59:58;;;;;;;0.15;0.03;;;20.10;99.90;;;;;;5012094;28;20124;-73
2022/07/11 11:02:24;;;;;;;0.73;0.10;;;20.10;99.90;;;;;;5038709;28;20041;-73
2022/07/11 11:04:51;;;;;;;0.47;0.10;;;20.20;99.90;;;;;;5002890;28;20104;-73
2022/07/11 11:07:36;;;;;;;0.60;0.20;;;20.20;99.90;;;;;;5026156;28;20054;-73
2022/07/11 11:10:28;;;;;;;1.42;0.10;;;20.30;99.90;;;;;;5008521;28;20137;-73
2022/07/11 11:13:06;;;;;;;1.27;0.40;;;20.20;99.90;;;;;;4998849;28;20137;-73
2022/07/11 11:15:35;;;;;;;0.50;0.10;;;20.20;99.90;;;;;;5007510;28;20066;-72
2022/07/11 11:18:25;;;;;;;0.50;0.10;;;20.10;99.90;;;;;;5008041;28;20046;-73
2022/07/11 11:21:00;;;;;;;4.18;0.32;;;20.10;99.90;;;;;;4992906;28;20053;-72
2022/07/11 11:23:32;;;;;;;2.63;0.20;;;20.10;99.90;;;;;;4991122;28;20128;-73
2022/07/11 11:26:08;;;;;;;1.25;0.10;;;20.30;99.90;;;;;;5044981;28;20088;-73
2022/07/11 11:28:35;;;;;;;0.60;0.10;;;20.40;99.90;;;;;;4991766;28;20140;-73
2022/07/11 11:31:04;;;;;;;0.90;0.10;;;20.40;99.90;;;;;;5014140;28;20128;-73
2022/07/11 11:33:34;;;;;;;0.68;0.10;;;20.40;99.90;;;;;;4994328;28;20385;-73
2022/07/11 11:36:09;;;;;;;0.10;0.10;;;20.50;99.90;;;;;;5011671;28;20100;-73
2022/07/11 11:38:37;;;;;;;0.65;0.00;;;20.50;99.90;;;;;;5007559;28;20053;-73
2022/07/11 11:41:07;;;;;;;1.05;0.10;;;20.50;99.90;;;;;;5013659;28;20084;-73
2022/07/11 11:43:34;;;;;;;0.20;0.00;;;20.60;99.90;;;;;;4993494;28;20060;-73
2022/07/11 11:46:01;;;;;;;0.20;0.10;;;20.70;99.90;;;;;;5010105;28;20037;-73
2022/07/11 11:48:32;;;;;;;0.35;0.10;;;20.70;99.90;;;;;;5042018;28;20379;-73
2022/07/11 11:51:04;;;;;;;0.10;0.00;;;20.80;99.90;;;;;;5026689;28;20077;-74
2022/07/11 11:53:46;;;;;;;0.10;0.08;;;20.90;99.90;;;;;;5005681;28;20049;-74
2022/07/11 11:56:16;;;;;;;0.35;0.10;;;21.00;99.90;;;;;;5010132;28;20034;-74
2022/07/11 11:58:43;;;;;;;1.30;0.13;;;21.10;99.90;;;;;;5007941;28;20123;-74
2022/07/11 12:01:10;;;;;;;0.50;0.10;;;21.30;99.90;;;;;;5014664;28;20045;-74
2022/07/11 12:03:59;;;;;;;0.40;0.10;;;21.30;99.90;;;;;;5008488;28;20037;-73
2022/07/11 12:06:30;;;;;;;0.32;0.10;;;21.40;99.90;;;;;;5010222;28;20049;-72
2022/07/11 12:09:12;;;;;;;1.00;0.10;;;21.60;99.90;;;;;;4993795;28;20494;-72
2022/07/11 12:11:43;;;;;;;2.53;0.10;;;21.90;99.90;;;;;;5010673;28;20067;-72
2022/07/11 12:14:11;;;;;;;0.50;0.10;;;22.10;99.90;;;;;;5007831;28;20114;-73
2022/07/11 12:16:47;;;;;;;0.80;0.20;;;22.10;99.90;;;;;;5011776;28;20049;-73
2022/07/11 12:19:17;;;;;;;1.05;0.10;;;22.10;99.90;;;;;;5024867;28;20421;-73
2022/07/11 12:21:48;;;;;;;1.35;0.17;;;22.10;99.90;;;;;;5024516;28;20141;-73
2022/07/11 12:24:26;;;;;;;0.60;0.03;;;22.10;99.90;;;;;;5007442;28;20497;-74
2022/07/11 12:26:52;;;;;;;0.32;0.10;;;22.10;99.90;;;;;;5006377;28;20050;-74
2022/07/11 12:29:28;;;;;;;0.30;0.10;;;22.00;99.90;;;;;;4992867;28;20057;-74
2022/07/11 12:31:59;;;;;;;2.40;0.20;;;22.10;99.90;;;;;;5008644;28;20057;-69
2022/07/11 12:34:31;;;;;;;0.95;0.13;;;22.10;99.90;;;;;;5011084;28;20057;-68
2022/07/11 12:37:05;;;;;;;1.60;0.10;;;22.00;99.90;;;;;;5008561;28;20041;-70
2022/07/11 12:39:33;;;;;;;0.98;0.00;;;21.90;99.90;;;;;;5042885;28;20053;-69
2022/07/11 12:42:19;;;;;;;0.80;0.10;;;21.80;99.90;;;;;;5042506;28;20123;-68
2022/07/11 12:44:59;;;;;;;1.73;0.10;;;21.70;99.90;;;;;;5010488;28;20130;-69
2022/07/11 12:47:26;;;;;;;1.73;0.20;;;21.60;99.90;;;;;;5008811;28;22618;-69
2022/07/11 12:49:52;;;;;;;0.68;0.10;;;21.50;99.90;;;;;;5006176;28;20445;-69
2022/07/11 12:52:18;;;;;;;0.50;0.10;;;21.50;99.90;;;;;;5008535;28;20053;-69
2022/07/11 12:54:44;;;;;;;4.07;0.20;;;21.50;99.90;;;;;;5011225;28;20134;-69
2022/07/11 12:57:15;;;;;;;1.65;0.10;;;21.50;99.90;;;;;;5007385;28;20153;-69